Time;durP1;ratioP1;P1;durP2;ratioP2;P2;SDS_P1;SDS_P2;PMS_P1;PMS_P2;Temp;Humidity;BMP_temperature;BMP_pressure;BME280_temperature;BME280_humidity;BME280_pressure;Samples;Min_cycle;Max_cycle;Signal;HPM_P1;HPM_P2
2022/07/02 00:00:54;;;;;;;2.30;1.80;;;22.50;46.90;;;;;;4925965;29;20480;-55
2022/07/02 00:03:36;;;;;;;1.70;1.60;;;22.50;46.90;;;;;;4928245;29;21161;-58
2022/07/02 00:06:04;;;;;;;1.60;1.50;;;22.50;46.80;;;;;;4928406;29;20203;-55
2022/07/02 00:08:31;;;;;;;2.13;2.03;;;22.50;46.90;;;;;;4926616;29;20447;-56
2022/07/02 00:10:58;;;;;;;1.70;1.60;;;22.50;46.90;;;;;;4929318;29;20433;-55
2022/07/02 00:13:26;;;;;;;1.70;1.60;;;22.50;46.90;;;;;;4926591;29;20445;-57
2022/07/02 00:15:52;;;;;;;1.60;1.50;;;22.50;46.80;;;;;;4925529;29;20429;-56
2022/07/02 00:18:19;;;;;;;1.50;1.40;;;22.50;46.90;;;;;;4926583;29;20528;-55
2022/07/02 00:20:45;;;;;;;1.87;1.77;;;22.50;46.80;;;;;;4928889;29;20799;-56
2022/07/02 00:23:11;;;;;;;1.60;1.50;;;22.50;46.80;;;;;;4924822;29;20535;-55
2022/07/02 00:25:39;;;;;;;1.50;1.40;;;22.50;46.80;;;;;;4924630;29;20440;-56
2022/07/02 00:28:11;;;;;;;1.50;1.40;;;22.50;46.90;;;;;;4927060;29;21011;-56
2022/07/02 00:30:39;;;;;;;1.80;1.70;;;22.50;46.90;;;;;;4931668;29;20453;-55
2022/07/02 00:33:06;;;;;;;1.60;1.50;;;22.50;46.90;;;;;;4930926;29;20448;-55
2022/07/02 00:35:33;;;;;;;1.60;1.50;;;22.50;46.80;;;;;;4932914;29;20429;-55
2022/07/02 00:38:01;;;;;;;1.50;1.40;;;22.50;46.90;;;;;;4927945;29;20535;-55
2022/07/02 00:40:28;;;;;;;1.70;1.60;;;22.50;46.90;;;;;;4927724;29;20445;-56
2022/07/02 00:42:54;;;;;;;1.60;1.50;;;22.50;46.90;;;;;;4930506;29;20477;-56
2022/07/02 00:45:20;;;;;;;1.70;1.60;;;22.50;46.90;;;;;;4928303;29;20437;-58
2022/07/02 00:47:46;;;;;;;1.60;1.50;;;22.50;46.90;;;;;;4927092;29;20531;-57
2022/07/02 00:50:11;;;;;;;1.67;1.57;;;22.50;46.80;;;;;;4927685;29;20186;-56
2022/07/02 00:52:37;;;;;;;1.63;1.53;;;22.50;46.80;;;;;;4929312;29;20449;-61
2022/07/02 00:55:03;;;;;;;1.60;1.50;;;22.50;46.80;;;;;;4931135;29;20610;-56
2022/07/02 00:57:31;;;;;;;1.73;1.63;;;22.50;46.90;;;;;;4926792;29;20226;-58
2022/07/02 00:59:56;;;;;;;1.50;1.40;;;22.50;46.80;;;;;;4928369;29;20183;-57
2022/07/02 01:02:22;;;;;;;1.70;1.60;;;22.50;46.90;;;;;;4932985;29;20439;-59
2022/07/02 01:04:50;;;;;;;1.80;1.70;;;22.50;47.00;;;;;;4932407;28;20642;-59
2022/07/02 01:07:16;;;;;;;1.70;1.60;;;22.50;46.90;;;;;;4933884;29;20464;-60
2022/07/02 01:12:33;;;;;;;1.73;1.63;;;22.50;46.90;;;;;;4936073;29;20565;-56
2022/07/02 01:14:59;;;;;;;1.60;1.50;;;22.50;46.90;;;;;;4937617;29;20437;-55
2022/07/02 01:17:25;;;;;;;2.23;1.60;;;22.50;46.90;;;;;;4937773;29;20814;-56
2022/07/02 01:19:51;;;;;;;1.70;1.60;;;22.50;46.80;;;;;;4939456;29;20195;-56
2022/07/02 01:22:31;;;;;;;1.50;1.40;;;22.50;46.90;;;;;;4936736;29;20435;-56
2022/07/02 01:24:57;;;;;;;1.93;1.83;;;22.50;46.80;;;;;;4935784;29;20198;-56
2022/07/02 01:27:23;;;;;;;1.70;1.60;;;22.50;46.80;;;;;;4941798;29;20793;-59
2022/07/02 01:29:49;;;;;;;1.60;1.50;;;22.50;46.90;;;;;;4936117;29;20238;-56
2022/07/02 01:32:15;;;;;;;2.70;1.50;;;22.50;46.90;;;;;;4938579;29;20468;-56
2022/07/02 01:34:44;;;;;;;1.80;1.70;;;22.50;46.90;;;;;;4938667;29;21021;-57
2022/07/02 01:37:12;;;;;;;3.83;1.60;;;22.50;46.90;;;;;;4936510;29;20183;-55
2022/07/02 01:39:38;;;;;;;1.80;1.70;;;22.50;46.80;;;;;;4937843;29;20851;-58
2022/07/02 01:42:05;;;;;;;1.50;1.40;;;22.50;46.80;;;;;;4934732;29;20480;-55
2022/07/02 01:44:32;;;;;;;1.67;1.57;;;22.50;46.80;;;;;;4936449;29;20507;-57
2022/07/02 01:46:57;;;;;;;1.60;1.50;;;22.50;46.80;;;;;;4937524;29;20464;-56
2022/07/02 01:49:23;;;;;;;1.80;1.70;;;22.50;46.90;;;;;;4938172;29;20779;-58
2022/07/02 01:51:48;;;;;;;1.40;1.30;;;22.50;46.90;;;;;;4935373;29;20281;-57
2022/07/02 01:54:14;;;;;;;1.60;1.50;;;22.50;46.90;;;;;;4936455;29;20282;-56
2022/07/02 01:56:40;;;;;;;1.60;1.50;;;22.50;46.90;;;;;;4937292;29;20882;-56
2022/07/02 01:59:06;;;;;;;1.43;1.33;;;22.50;46.90;;;;;;4935423;29;20187;-56
2022/07/02 02:01:31;;;;;;;1.80;1.70;;;22.50;46.80;;;;;;4935252;29;20234;-57
2022/07/02 02:03:57;;;;;;;1.70;1.60;;;22.50;46.80;;;;;;4939291;29;20190;-55
2022/07/02 02:06:23;;;;;;;1.70;1.60;;;22.50;46.80;;;;;;4937550;29;20293;-57
2022/07/02 02:08:49;;;;;;;1.70;1.60;;;22.40;46.70;;;;;;4932406;29;20556;-56
2022/07/02 02:11:15;;;;;;;1.60;1.50;;;22.50;46.90;;;;;;4933505;29;20194;-57
2022/07/02 02:13:41;;;;;;;1.57;1.47;;;22.50;46.80;;;;;;4939550;29;20473;-55
2022/07/02 02:16:06;;;;;;;1.67;1.57;;;22.50;46.90;;;;;;4933624;29;20465;-55
2022/07/02 02:18:32;;;;;;;2.30;1.60;;;22.50;46.90;;;;;;4938064;29;20570;-56
2022/07/02 02:20:58;;;;;;;1.83;1.73;;;22.50;46.80;;;;;;4939069;29;20186;-56
2022/07/02 02:23:23;;;;;;;1.60;1.50;;;22.50;46.90;;;;;;4937303;29;20416;-57
2022/07/02 02:25:49;;;;;;;2.63;2.43;;;22.50;46.90;;;;;;4936591;29;20254;-56
2022/07/02 02:28:14;;;;;;;1.67;1.57;;;22.50;46.80;;;;;;4937677;29;20183;-55
2022/07/02 02:30:40;;;;;;;1.60;1.50;;;22.50;46.90;;;;;;4936968;29;20750;-55
2022/07/02 02:33:06;;;;;;;1.63;1.53;;;22.40;46.80;;;;;;4938432;29;20776;-55
2022/07/02 02:35:31;;;;;;;1.90;1.80;;;22.50;46.90;;;;;;4939524;29;20537;-57
2022/07/02 02:37:57;;;;;;;1.90;1.80;;;22.50;46.90;;;;;;4935511;29;20189;-59
2022/07/02 02:40:22;;;;;;;1.80;1.70;;;22.50;46.90;;;;;;4939020;29;20191;-56
2022/07/02 02:42:48;;;;;;;1.90;1.80;;;22.50;46.90;;;;;;4932977;29;20294;-56
2022/07/02 02:45:14;;;;;;;1.77;1.63;;;22.40;46.70;;;;;;4938142;29;20262;-55
2022/07/02 02:47:40;;;;;;;1.60;1.50;;;22.50;46.80;;;;;;4937195;29;20996;-55
2022/07/02 02:50:09;;;;;;;1.77;1.67;;;22.50;46.90;;;;;;4936656;29;20193;-55
2022/07/02 02:52:34;;;;;;;1.70;1.60;;;22.40;46.80;;;;;;4935498;29;20197;-55
2022/07/02 02:55:00;;;;;;;1.70;1.60;;;22.40;46.80;;;;;;4939356;29;20425;-55
2022/07/02 02:57:27;;;;;;;1.60;1.50;;;22.50;46.90;;;;;;4934618;29;20186;-57
2022/07/02 02:59:52;;;;;;;1.70;1.60;;;22.50;46.90;;;;;;4937035;29;20265;-57
2022/07/02 03:02:18;;;;;;;3.10;1.70;;;22.40;46.80;;;;;;4932957;29;20596;-56
2022/07/02 03:04:43;;;;;;;1.67;1.57;;;22.40;46.80;;;;;;4933481;29;20192;-55
2022/07/02 03:07:09;;;;;;;1.60;1.50;;;22.40;46.70;;;;;;4932179;29;20218;-56
2022/07/02 03:09:35;;;;;;;1.90;1.40;;;22.40;46.80;;;;;;4937193;29;20653;-57
2022/07/02 03:12:00;;;;;;;1.60;1.50;;;22.40;46.80;;;;;;4931127;29;20191;-57
2022/07/02 03:14:26;;;;;;;2.90;1.50;;;22.50;46.90;;;;;;4921613;29;20182;-59
2022/07/02 03:16:51;;;;;;;1.90;1.80;;;22.50;46.90;;;;;;4923024;29;20194;-59
2022/07/02 03:19:17;;;;;;;1.47;1.37;;;22.40;46.80;;;;;;4925098;29;20198;-58
2022/07/02 03:21:42;;;;;;;1.60;1.50;;;22.50;46.90;;;;;;4929859;29;20238;-56
2022/07/02 03:24:08;;;;;;;1.80;1.70;;;22.50;46.90;;;;;;4932072;29;20197;-56
2022/07/02 03:26:33;;;;;;;1.67;1.57;;;22.50;46.90;;;;;;4931593;29;20214;-58
2022/07/02 03:28:59;;;;;;;1.70;1.60;;;22.50;46.90;;;;;;4930679;28;20660;-58
2022/07/02 03:31:24;;;;;;;1.70;1.60;;;22.50;46.90;;;;;;4924069;29;20233;-56
2022/07/02 03:33:50;;;;;;;1.53;1.43;;;22.50;46.90;;;;;;4924586;29;20194;-55
2022/07/02 03:36:16;;;;;;;1.60;1.50;;;22.60;47.00;;;;;;4926052;29;20218;-56
2022/07/02 03:38:42;;;;;;;1.63;1.53;;;22.60;46.90;;;;;;4929277;29;20190;-61
2022/07/02 03:41:08;;;;;;;2.00;1.60;;;22.60;46.90;;;;;;4921710;29;20480;-60
2022/07/02 03:43:34;;;;;;;1.50;1.40;;;22.60;47.00;;;;;;4919053;29;20313;-59
2022/07/02 03:46:00;;;;;;;2.43;1.93;;;22.60;47.00;;;;;;4923990;29;20445;-57
2022/07/02 03:48:25;;;;;;;4.27;1.80;;;22.50;46.80;;;;;;4916990;29;20463;-60
2022/07/02 03:50:51;;;;;;;3.97;1.97;;;22.60;46.90;;;;;;4924086;29;20191;-61
2022/07/02 03:53:17;;;;;;;1.83;1.70;;;22.50;46.90;;;;;;4927307;29;20199;-58
2022/07/02 03:55:42;;;;;;;3.37;1.80;;;22.60;47.00;;;;;;4926853;29;20191;-58
2022/07/02 03:58:08;;;;;;;1.50;1.40;;;22.60;47.00;;;;;;4907371;29;20187;-58
2022/07/02 04:00:33;;;;;;;1.70;1.60;;;22.50;46.90;;;;;;4925476;29;20175;-56
2022/07/02 04:02:59;;;;;;;1.80;1.70;;;22.50;46.90;;;;;;4931419;29;20193;-57
2022/07/02 04:05:24;;;;;;;2.13;1.50;;;22.60;47.00;;;;;;4930503;29;20669;-57
2022/07/02 04:07:50;;;;;;;1.83;1.73;;;22.50;46.80;;;;;;4921893;29;20293;-57
2022/07/02 04:10:16;;;;;;;2.07;1.87;;;22.50;46.90;;;;;;4921023;29;20278;-56
2022/07/02 04:12:42;;;;;;;2.47;1.50;;;22.50;46.90;;;;;;4925429;29;20186;-57
2022/07/02 04:15:08;;;;;;;1.60;1.50;;;22.50;46.90;;;;;;4927855;29;20196;-58
2022/07/02 04:17:33;;;;;;;1.77;1.67;;;22.50;46.80;;;;;;4930137;29;20249;-56
2022/07/02 04:19:59;;;;;;;1.70;1.60;;;22.50;46.90;;;;;;4911395;29;20469;-56
2022/07/02 04:22:25;;;;;;;1.87;1.70;;;22.50;46.90;;;;;;4926388;29;20205;-56
2022/07/02 04:24:50;;;;;;;2.63;1.50;;;22.50;46.90;;;;;;4924839;29;20253;-57
2022/07/02 04:27:17;;;;;;;3.23;1.70;;;22.50;47.60;;;;;;4923349;29;20618;-57
2022/07/02 04:29:43;;;;;;;1.70;1.60;;;22.50;46.90;;;;;;4934595;29;20186;-57
2022/07/02 04:32:08;;;;;;;1.50;1.40;;;22.50;46.90;;;;;;4935516;29;20961;-56
2022/07/02 04:34:34;;;;;;;2.50;1.60;;;22.50;46.90;;;;;;4929056;29;20634;-57
2022/07/02 04:37:00;;;;;;;1.87;1.67;;;22.50;46.90;;;;;;4930269;29;20660;-56
2022/07/02 04:39:25;;;;;;;3.37;1.80;;;22.50;46.90;;;;;;4926837;29;20674;-57
2022/07/02 04:41:51;;;;;;;1.70;1.60;;;22.50;46.90;;;;;;4928738;29;20242;-59
2022/07/02 04:44:17;;;;;;;1.83;1.60;;;22.50;46.90;;;;;;4934500;29;20217;-58
2022/07/02 04:46:43;;;;;;;8.10;2.00;;;22.50;46.90;;;;;;4929459;29;20246;-58
2022/07/02 04:49:08;;;;;;;1.50;1.40;;;22.50;46.80;;;;;;4932335;29;20214;-59
2022/07/02 04:51:34;;;;;;;1.67;1.40;;;22.50;46.90;;;;;;4913386;29;20585;-57
2022/07/02 04:54:00;;;;;;;1.80;1.70;;;22.50;46.80;;;;;;4933394;29;20191;-57
2022/07/02 04:56:27;;;;;;;2.70;1.60;;;22.50;46.80;;;;;;4933227;29;20259;-58
2022/07/02 04:58:54;;;;;;;2.77;1.80;;;22.50;46.80;;;;;;4939026;29;20186;-59
2022/07/02 05:01:19;;;;;;;1.50;1.40;;;22.50;46.70;;;;;;4935891;29;20445;-59
2022/07/02 05:03:45;;;;;;;1.50;1.40;;;22.50;46.60;;;;;;4937420;29;20488;-56
2022/07/02 05:06:10;;;;;;;2.20;1.40;;;22.50;46.50;;;;;;4936677;29;20629;-57
2022/07/02 05:08:36;;;;;;;1.53;1.43;;;22.50;46.50;;;;;;4938468;29;20193;-57
2022/07/02 05:11:01;;;;;;;1.63;1.53;;;22.50;46.50;;;;;;4934309;29;20191;-57
2022/07/02 05:13:27;;;;;;;1.67;1.57;;;22.50;46.40;;;;;;4935886;29;20218;-57
2022/07/02 05:15:53;;;;;;;1.30;1.20;;;22.50;46.40;;;;;;4934827;29;20230;-60
2022/07/02 05:18:18;;;;;;;1.43;1.33;;;22.50;46.30;;;;;;4937227;29;20198;-57
2022/07/02 05:20:44;;;;;;;2.43;1.53;;;22.50;46.20;;;;;;4936110;29;20240;-57
2022/07/02 05:23:10;;;;;;;1.50;1.40;;;22.50;46.20;;;;;;4935237;29;20240;-58
2022/07/02 05:25:35;;;;;;;2.23;2.13;;;22.50;46.10;;;;;;4934648;29;20187;-56
2022/07/02 05:28:01;;;;;;;1.70;1.60;;;22.50;46.10;;;;;;4933131;29;20214;-57
2022/07/02 05:30:27;;;;;;;1.80;1.37;;;22.50;46.10;;;;;;4933075;29;20264;-58
2022/07/02 05:32:52;;;;;;;3.83;1.50;;;22.50;46.10;;;;;;4937644;29;20179;-57
2022/07/02 05:35:18;;;;;;;1.60;1.50;;;22.50;46.10;;;;;;4937555;29;20214;-58
2022/07/02 05:37:43;;;;;;;1.57;1.47;;;22.50;46.00;;;;;;4933756;29;20190;-57
2022/07/02 05:40:10;;;;;;;1.60;1.50;;;22.50;46.00;;;;;;4939374;29;20181;-57
2022/07/02 05:42:35;;;;;;;1.60;1.50;;;22.50;46.00;;;;;;4935501;29;20285;-56
2022/07/02 05:45:01;;;;;;;1.50;1.40;;;22.50;46.00;;;;;;4933042;29;20440;-56
2022/07/02 05:47:27;;;;;;;1.47;1.37;;;22.50;45.90;;;;;;4936496;29;20207;-57
2022/07/02 05:49:52;;;;;;;8.00;1.60;;;22.50;46.10;;;;;;4938653;29;20281;-56
2022/07/02 05:52:18;;;;;;;1.50;1.40;;;22.50;45.90;;;;;;4938579;29;20627;-58
2022/07/02 05:54:45;;;;;;;1.40;1.30;;;22.50;45.80;;;;;;4936223;29;20201;-57
2022/07/02 05:57:10;;;;;;;2.40;1.30;;;22.50;45.80;;;;;;4939318;29;20436;-57
2022/07/02 05:59:36;;;;;;;2.10;1.50;;;22.50;45.70;;;;;;4940157;29;20871;-56
2022/07/02 06:02:06;;;;;;;3.10;1.40;;;22.50;45.70;;;;;;4936833;29;20586;-56
2022/07/02 06:04:32;;;;;;;1.50;1.40;;;22.50;45.70;;;;;;4938659;29;20183;-56
2022/07/02 06:09:45;;;;;;;1.53;1.43;;;22.50;45.60;;;;;;4936107;29;20487;-56
2022/07/02 06:12:10;;;;;;;2.80;1.23;;;22.50;45.60;;;;;;4938924;29;20437;-57
2022/07/02 06:14:36;;;;;;;1.53;1.43;;;22.50;45.60;;;;;;4942586;29;20199;-61
2022/07/02 06:17:01;;;;;;;1.50;1.40;;;22.50;45.60;;;;;;4936764;29;20194;-56
2022/07/02 06:19:27;;;;;;;1.30;1.20;;;22.50;45.60;;;;;;4935459;29;20222;-57
2022/07/02 06:21:53;;;;;;;1.30;1.20;;;22.50;45.60;;;;;;4937372;29;20272;-59
2022/07/02 06:24:18;;;;;;;1.40;1.30;;;22.50;45.60;;;;;;4941736;29;20183;-56
2022/07/02 06:26:44;;;;;;;1.37;1.27;;;22.50;45.60;;;;;;4939871;29;20232;-57
2022/07/02 06:29:09;;;;;;;1.70;1.60;;;22.50;45.50;;;;;;4937492;29;20205;-56
2022/07/02 06:31:36;;;;;;;1.70;1.33;;;22.50;45.50;;;;;;4936927;29;20241;-57
2022/07/02 06:34:02;;;;;;;1.80;1.23;;;22.50;45.50;;;;;;4939036;29;20270;-56
2022/07/02 06:36:28;;;;;;;1.67;1.57;;;22.50;46.20;;;;;;4935022;29;20432;-57
2022/07/02 06:38:53;;;;;;;1.80;1.70;;;22.50;45.50;;;;;;4937313;29;20433;-56
2022/07/02 06:44:04;;;;;;;1.60;1.50;;;22.50;45.50;;;;;;4937686;29;20274;-56
2022/07/02 06:46:30;;;;;;;1.60;1.50;;;22.50;45.80;;;;;;4939041;29;20469;-57
2022/07/02 06:48:56;;;;;;;1.30;1.20;;;22.50;45.50;;;;;;4938679;29;20433;-57
2022/07/02 06:51:22;;;;;;;1.50;1.40;;;22.50;45.50;;;;;;4937281;29;20547;-58
2022/07/02 06:53:48;;;;;;;1.43;1.20;;;22.50;45.50;;;;;;4934614;29;20432;-57
2022/07/02 06:56:13;;;;;;;1.50;1.40;;;22.50;45.50;;;;;;4941911;29;20175;-56
2022/07/02 06:58:39;;;;;;;1.30;1.20;;;22.50;45.50;;;;;;4938476;29;20536;-59
2022/07/02 07:01:04;;;;;;;1.40;1.30;;;22.50;45.50;;;;;;4939361;29;20342;-55
2022/07/02 07:03:30;;;;;;;1.37;1.20;;;22.50;45.50;;;;;;4935774;29;20277;-56
2022/07/02 07:05:55;;;;;;;1.40;1.30;;;22.50;45.50;;;;;;4938823;29;20645;-56
2022/07/02 07:08:21;;;;;;;1.60;1.50;;;22.50;45.40;;;;;;4940417;29;20190;-58
2022/07/02 07:10:46;;;;;;;1.30;1.20;;;22.50;45.50;;;;;;4938070;29;20194;-58
2022/07/02 07:13:12;;;;;;;1.40;1.30;;;22.50;45.40;;;;;;4939793;29;20194;-56
2022/07/02 07:15:38;;;;;;;1.37;1.27;;;22.50;45.40;;;;;;4939929;29;20187;-59
2022/07/02 07:18:03;;;;;;;1.40;1.30;;;22.50;45.40;;;;;;4934516;29;20194;-56
2022/07/02 07:20:29;;;;;;;1.50;1.20;;;22.50;45.40;;;;;;4939368;29;20178;-56
2022/07/02 07:22:59;;;;;;;1.60;1.50;;;22.50;45.50;;;;;;4937498;29;20222;-57
2022/07/02 07:25:25;;;;;;;1.70;1.60;;;22.50;45.40;;;;;;4936404;29;20195;-58
2022/07/02 07:27:51;;;;;;;1.37;1.27;;;22.50;45.50;;;;;;4933288;29;20500;-56
2022/07/02 07:30:16;;;;;;;1.50;1.40;;;22.50;45.50;;;;;;4938112;29;20186;-56
2022/07/02 07:32:42;;;;;;;1.40;1.30;;;22.50;45.50;;;;;;4936170;29;20225;-57
2022/07/02 07:35:08;;;;;;;1.30;1.20;;;22.50;45.50;;;;;;4934555;29;20662;-58
2022/07/02 07:37:36;;;;;;;1.33;1.23;;;22.50;45.50;;;;;;4935761;29;20646;-56
2022/07/02 07:40:07;;;;;;;1.17;1.07;;;22.50;45.50;;;;;;4934329;29;20497;-56
2022/07/02 07:42:33;;;;;;;1.50;1.40;;;22.50;45.50;;;;;;4942759;29;20472;-56
2022/07/02 07:44:58;;;;;;;1.57;1.47;;;22.50;45.50;;;;;;4936696;29;21245;-56
2022/07/02 07:47:24;;;;;;;1.30;1.20;;;22.50;45.50;;;;;;4937442;29;20495;-57
2022/07/02 07:49:50;;;;;;;1.43;1.33;;;22.50;45.50;;;;;;4938829;29;20179;-56
2022/07/02 07:52:15;;;;;;;1.40;1.30;;;22.50;45.60;;;;;;4936636;29;20214;-57
2022/07/02 07:54:41;;;;;;;1.50;1.40;;;22.50;45.60;;;;;;4934838;29;20265;-57
2022/07/02 07:57:06;;;;;;;1.30;1.20;;;22.50;45.60;;;;;;4934264;29;20221;-56
2022/07/02 07:59:32;;;;;;;1.60;1.50;;;22.50;45.60;;;;;;4940586;29;20269;-56
2022/07/02 08:01:57;;;;;;;1.30;1.20;;;22.50;45.60;;;;;;4935246;29;20182;-57
2022/07/02 08:04:24;;;;;;;1.60;1.50;;;22.50;45.60;;;;;;4920905;29;20238;-59
2022/07/02 08:06:49;;;;;;;1.43;1.33;;;22.50;45.60;;;;;;4934603;29;20207;-56
2022/07/02 08:09:15;;;;;;;1.33;1.23;;;22.50;46.00;;;;;;4933321;29;20433;-56
2022/07/02 08:11:41;;;;;;;1.60;1.50;;;22.50;45.60;;;;;;4935915;29;20284;-57
2022/07/02 08:14:07;;;;;;;1.20;1.10;;;22.50;45.60;;;;;;4935481;29;20515;-56
2022/07/02 08:16:33;;;;;;;1.40;1.30;;;22.50;45.60;;;;;;4939619;29;20190;-60
2022/07/02 08:18:58;;;;;;;1.50;1.40;;;22.50;45.70;;;;;;4932867;29;20201;-56
2022/07/02 08:21:24;;;;;;;1.40;1.30;;;22.50;45.60;;;;;;4935974;29;20435;-57
2022/07/02 08:23:50;;;;;;;1.40;1.30;;;22.50;45.60;;;;;;4937127;29;20182;-56
2022/07/02 08:26:16;;;;;;;1.50;1.40;;;22.50;45.70;;;;;;4936165;29;20622;-57
2022/07/02 08:28:41;;;;;;;1.60;1.50;;;22.50;45.70;;;;;;4935688;29;20191;-57
2022/07/02 08:31:07;;;;;;;1.40;1.30;;;22.50;45.70;;;;;;4935422;29;20482;-56
2022/07/02 08:33:33;;;;;;;1.57;1.20;;;22.50;45.70;;;;;;4934233;29;20187;-58
2022/07/02 08:35:59;;;;;;;1.40;1.30;;;22.50;45.80;;;;;;4934567;29;20205;-56
2022/07/02 08:38:25;;;;;;;1.37;1.27;;;22.50;45.80;;;;;;4934444;29;20206;-57
2022/07/02 08:40:50;;;;;;;1.00;1.00;;;22.50;45.70;;;;;;4935909;29;20182;-56
2022/07/02 08:43:17;;;;;;;1.30;1.20;;;22.50;45.80;;;;;;4934833;29;20182;-56
2022/07/02 08:45:44;;;;;;;1.30;1.20;;;22.50;45.80;;;;;;4936017;29;20242;-57
2022/07/02 08:48:12;;;;;;;1.40;1.30;;;22.50;45.80;;;;;;4939262;29;20472;-56
2022/07/02 08:50:39;;;;;;;1.60;1.50;;;22.50;45.90;;;;;;4934328;29;20964;-56
2022/07/02 08:53:06;;;;;;;1.60;1.50;;;22.50;45.80;;;;;;4935403;29;20492;-56
2022/07/02 08:55:34;;;;;;;1.20;1.10;;;22.50;45.90;;;;;;4938721;29;20536;-56
2022/07/02 08:58:00;;;;;;;1.40;1.30;;;22.50;45.80;;;;;;4935777;29;20908;-58
2022/07/02 09:00:26;;;;;;;1.50;1.40;;;22.50;45.90;;;;;;4935523;29;20493;-57
2022/07/02 09:02:53;;;;;;;1.50;1.40;;;22.50;45.90;;;;;;4937234;29;20501;-56
2022/07/02 09:05:23;;;;;;;1.50;1.40;;;22.50;45.90;;;;;;4938329;29;20519;-57
2022/07/02 09:07:50;;;;;;;1.30;1.20;;;22.50;45.90;;;;;;4934985;29;20500;-58
2022/07/02 09:10:18;;;;;;;1.50;1.40;;;22.50;45.90;;;;;;4933945;29;20465;-56
2022/07/02 09:12:47;;;;;;;1.43;1.33;;;22.50;45.90;;;;;;4934707;29;20461;-55
2022/07/02 09:15:14;;;;;;;1.50;1.40;;;22.50;45.90;;;;;;4933969;29;20413;-56
2022/07/02 09:17:42;;;;;;;1.60;1.50;;;22.50;45.90;;;;;;4934418;29;20433;-57
2022/07/02 09:20:08;;;;;;;1.37;1.27;;;22.50;46.00;;;;;;4940713;29;20500;-58
2022/07/02 09:22:44;;;;;;;1.30;1.20;;;22.50;45.90;;;;;;4937556;29;20428;-56
2022/07/02 09:25:17;;;;;;;1.23;1.13;;;22.50;45.90;;;;;;4933709;29;21117;-56
2022/07/02 09:27:45;;;;;;;1.50;1.40;;;22.50;46.00;;;;;;4934160;29;20566;-59
2022/07/02 09:30:12;;;;;;;1.70;1.60;;;22.50;46.00;;;;;;4937209;29;20435;-56
2022/07/02 09:32:43;;;;;;;1.50;1.40;;;22.50;46.00;;;;;;4939327;29;20417;-56
2022/07/02 09:35:20;;;;;;;1.50;1.40;;;22.50;46.00;;;;;;4942547;29;20447;-55
2022/07/02 09:37:48;;;;;;;1.90;1.80;;;22.50;46.10;;;;;;4941494;29;20646;-55
2022/07/02 09:40:14;;;;;;;1.40;1.30;;;22.50;46.10;;;;;;4937846;29;20448;-56
2022/07/02 09:42:45;;;;;;;1.40;1.30;;;22.50;46.10;;;;;;4940512;29;20469;-58
2022/07/02 09:45:11;;;;;;;1.30;1.20;;;22.50;46.20;;;;;;4937184;29;20437;-56
2022/07/02 09:47:53;;;;;;;1.60;1.50;;;22.50;46.20;;;;;;4919663;29;20457;-56
2022/07/02 09:50:21;;;;;;;1.50;1.40;;;22.50;46.10;;;;;;4937335;29;20182;-57
2022/07/02 09:52:51;;;;;;;1.50;1.40;;;22.50;46.20;;;;;;4939721;29;20429;-55
2022/07/02 09:55:29;;;;;;;1.57;1.47;;;22.50;46.10;;;;;;4941509;29;20437;-59
2022/07/02 09:58:00;;;;;;;1.50;1.40;;;22.50;46.10;;;;;;4938987;29;20466;-59
2022/07/02 10:00:28;;;;;;;1.47;1.37;;;22.50;46.20;;;;;;4937529;29;20449;-58
2022/07/02 10:02:57;;;;;;;1.37;1.27;;;22.50;46.30;;;;;;4937354;29;20439;-57
2022/07/02 10:05:31;;;;;;;1.40;1.30;;;22.50;46.30;;;;;;4937847;29;20437;-57
2022/07/02 10:07:59;;;;;;;1.60;1.50;;;22.50;46.20;;;;;;4934945;29;20614;-59
2022/07/02 10:10:39;;;;;;;1.30;1.20;;;22.50;46.30;;;;;;4939640;29;20448;-58
2022/07/02 10:13:09;;;;;;;1.40;1.30;;;22.50;46.30;;;;;;4922253;29;20452;-57
2022/07/02 10:15:39;;;;;;;1.70;1.60;;;22.50;46.30;;;;;;4937236;29;20429;-60
2022/07/02 10:18:06;;;;;;;1.37;1.27;;;22.50;46.30;;;;;;4935431;29;20485;-56
2022/07/02 10:20:33;;;;;;;1.30;1.20;;;22.50;46.30;;;;;;4940014;29;20420;-56
2022/07/02 10:23:00;;;;;;;1.50;1.40;;;22.50;46.40;;;;;;4933994;29;20448;-56
2022/07/02 10:25:26;;;;;;;1.50;1.40;;;22.50;46.30;;;;;;4938154;29;20432;-56
2022/07/02 10:27:55;;;;;;;1.40;1.30;;;22.50;46.40;;;;;;4937027;29;20465;-57
2022/07/02 10:30:22;;;;;;;1.50;1.40;;;22.60;46.50;;;;;;4939211;29;20853;-56
2022/07/02 10:33:09;;;;;;;1.13;1.10;;;22.60;46.50;;;;;;4937444;29;20791;-58
2022/07/02 10:35:37;;;;;;;1.50;1.40;;;22.50;46.40;;;;;;4936666;29;20964;-56
2022/07/02 10:38:03;;;;;;;1.40;1.30;;;22.50;46.40;;;;;;4936321;29;20436;-57
2022/07/02 10:40:29;;;;;;;1.30;1.20;;;22.60;47.20;;;;;;4936930;29;20439;-56
2022/07/02 10:42:59;;;;;;;1.50;1.40;;;22.60;46.50;;;;;;4941757;29;20240;-57
2022/07/02 10:45:26;;;;;;;1.60;1.50;;;22.50;46.50;;;;;;4937351;29;20437;-58
2022/07/02 10:48:05;;;;;;;1.50;1.40;;;22.50;46.50;;;;;;4938481;29;20469;-57
2022/07/02 10:50:39;;;;;;;1.70;1.40;;;22.60;46.60;;;;;;4935111;29;20496;-57
2022/07/02 10:53:20;;;;;;;1.40;1.30;;;22.60;46.60;;;;;;4938267;29;20420;-57
2022/07/02 10:55:51;;;;;;;1.30;1.20;;;22.60;46.60;;;;;;4935038;29;20472;-56
2022/07/02 10:58:31;;;;;;;1.50;1.40;;;22.50;46.50;;;;;;4937459;29;20554;-56
2022/07/02 11:01:08;;;;;;;1.50;1.40;;;22.60;46.60;;;;;;4938008;29;20424;-56
2022/07/02 11:03:34;;;;;;;1.50;1.40;;;22.60;46.60;;;;;;4920385;29;20424;-56
2022/07/02 11:06:04;;;;;;;1.57;1.47;;;22.60;46.70;;;;;;4934655;29;20452;-59
2022/07/02 11:08:45;;;;;;;1.20;1.10;;;22.60;46.70;;;;;;4938613;29;20472;-56
2022/07/02 11:11:15;;;;;;;1.60;1.50;;;22.50;46.50;;;;;;4933405;29;20944;-60
2022/07/02 11:13:44;;;;;;;1.57;1.47;;;22.60;46.70;;;;;;4937011;29;20428;-56
2022/07/02 11:16:22;;;;;;;1.50;1.40;;;22.60;46.70;;;;;;4935601;29;20425;-56
2022/07/02 11:18:49;;;;;;;1.30;1.20;;;22.60;46.70;;;;;;4937605;29;20448;-56
2022/07/02 11:21:16;;;;;;;1.50;1.40;;;22.60;46.70;;;;;;4937354;29;20791;-58
2022/07/02 11:23:42;;;;;;;1.70;1.60;;;22.60;46.70;;;;;;4933046;29;20437;-59
2022/07/02 11:26:08;;;;;;;1.50;1.40;;;22.60;46.70;;;;;;4933626;29;20432;-56
2022/07/02 11:28:35;;;;;;;1.40;1.30;;;22.60;46.70;;;;;;4938545;29;20421;-56
2022/07/02 11:31:04;;;;;;;1.60;1.50;;;22.60;46.70;;;;;;4934995;29;20191;-56
2022/07/02 11:33:33;;;;;;;1.30;1.20;;;22.60;46.80;;;;;;4937504;29;20579;-58
2022/07/02 11:35:58;;;;;;;1.43;1.33;;;22.60;46.70;;;;;;4936639;29;20503;-57
2022/07/02 11:38:24;;;;;;;1.60;1.50;;;22.60;46.80;;;;;;4934627;29;21015;-57
2022/07/02 11:40:50;;;;;;;1.40;1.30;;;22.60;46.80;;;;;;4939008;29;20765;-58
2022/07/02 11:43:17;;;;;;;1.70;1.60;;;22.60;46.70;;;;;;4932634;29;20209;-57
2022/07/02 11:45:47;;;;;;;1.30;1.20;;;22.60;46.70;;;;;;4940400;29;20369;-56
2022/07/02 11:48:20;;;;;;;1.50;1.40;;;22.60;46.80;;;;;;4933891;29;20650;-58
2022/07/02 11:50:58;;;;;;;1.40;1.30;;;22.60;46.70;;;;;;4936930;29;21165;-55
2022/07/02 11:53:24;;;;;;;1.57;1.47;;;22.60;46.70;;;;;;4934144;29;20961;-59
2022/07/02 11:55:50;;;;;;;1.93;1.83;;;22.60;46.70;;;;;;4934290;29;20429;-57
2022/07/02 11:58:17;;;;;;;1.60;1.50;;;22.60;46.80;;;;;;4933603;29;20533;-56
2022/07/02 12:00:42;;;;;;;1.37;1.27;;;22.60;46.80;;;;;;4935474;29;20412;-56
2022/07/02 12:03:12;;;;;;;1.47;1.37;;;22.60;46.90;;;;;;4934624;29;20488;-56
2022/07/02 12:05:49;;;;;;;1.40;1.30;;;22.60;46.80;;;;;;4935972;29;20267;-58
2022/07/02 12:08:16;;;;;;;1.60;1.50;;;22.60;46.80;;;;;;4933298;29;20456;-57
2022/07/02 12:10:41;;;;;;;1.37;1.27;;;22.60;46.80;;;;;;4935400;29;20448;-57
2022/07/02 12:13:08;;;;;;;1.40;1.30;;;22.60;46.80;;;;;;4917443;29;20429;-55
2022/07/02 12:15:44;;;;;;;1.17;1.13;;;22.60;46.80;;;;;;4936782;29;20535;-56
2022/07/02 12:18:18;;;;;;;1.37;1.27;;;22.60;47.60;;;;;;4936568;29;20600;-56
2022/07/02 12:20:44;;;;;;;1.63;1.53;;;22.60;46.80;;;;;;4939390;29;20938;-57
2022/07/02 12:23:09;;;;;;;1.43;1.33;;;22.60;46.90;;;;;;4934646;29;20437;-56
2022/07/02 12:25:45;;;;;;;1.30;1.20;;;22.60;46.90;;;;;;4931935;29;20752;-58
2022/07/02 12:30:56;;;;;;;1.40;1.30;;;22.60;46.80;;;;;;4931082;29;21746;-57
2022/07/02 12:33:34;;;;;;;1.30;1.20;;;22.60;46.80;;;;;;4935484;29;20433;-57
2022/07/02 12:36:02;;;;;;;1.40;1.30;;;22.60;46.80;;;;;;4935543;29;20262;-56
2022/07/02 12:38:28;;;;;;;1.40;1.30;;;22.60;46.80;;;;;;4936490;29;20433;-60
2022/07/02 12:41:01;;;;;;;1.40;1.30;;;22.60;46.80;;;;;;4929469;29;20826;-60
2022/07/02 12:43:26;;;;;;;1.40;1.30;;;22.60;46.90;;;;;;4933449;29;20269;-56
2022/07/02 12:46:02;;;;;;;1.40;1.30;;;22.60;46.90;;;;;;4934972;29;20528;-58
2022/07/02 12:48:28;;;;;;;1.20;1.20;;;22.60;46.90;;;;;;4936048;29;20225;-61
2022/07/02 12:50:53;;;;;;;1.37;1.27;;;22.60;47.00;;;;;;4933971;29;20427;-62
2022/07/02 12:53:20;;;;;;;1.10;1.10;;;22.60;46.90;;;;;;4932648;29;20221;-58
2022/07/02 12:55:58;;;;;;;1.60;1.50;;;22.60;46.80;;;;;;4936674;29;20190;-56
2022/07/02 12:58:25;;;;;;;1.27;1.17;;;22.60;46.90;;;;;;4932178;29;20429;-58